Time;durP1;ratioP1;P1;durP2;ratioP2;P2;SDS_P1;SDS_P2;PMS_P1;PMS_P2;Temp;Humidity;BMP_temperature;BMP_pressure;BME280_temperature;BME280_humidity;BME280_pressure;Samples;Min_cycle;Max_cycle;Signal;HPM_P1;HPM_P2
2022/06/19 00:00:54;;;;;;;4.15;1.38;;;;;;;27.08;40.48;101096.88;5048426;28;20033;-66
2022/06/19 00:03:30;;;;;;;3.08;1.20;;;;;;;27.05;40.60;101087.22;5031893;28;20037;-66
2022/06/19 00:05:55;;;;;;;3.75;1.35;;;;;;;27.07;40.63;101087.13;5034898;28;20167;-66
2022/06/19 00:08:21;;;;;;;4.75;1.50;;;;;;;27.05;40.61;101078.31;5031512;28;20103;-66
2022/06/19 00:10:48;;;;;;;3.60;1.33;;;;;;;27.04;40.57;101081.94;5033176;28;20029;-65
2022/06/19 00:13:14;;;;;;;4.55;1.30;;;;;;;27.01;40.29;101080.28;5032893;28;20037;-66
2022/06/19 00:15:39;;;;;;;2.78;1.27;;;;;;;26.99;40.61;101079.50;5032763;28;20498;-66
2022/06/19 00:18:05;;;;;;;4.32;1.45;;;;;;;26.99;40.58;101086.66;5032568;28;20033;-66
2022/06/19 00:20:30;;;;;;;4.82;1.50;;;;;;;26.99;40.50;101090.19;5033090;28;20025;-66
2022/06/19 00:22:55;;;;;;;3.35;1.33;;;;;;;26.99;40.71;101082.16;5033227;28;20120;-66
2022/06/19 00:25:21;;;;;;;4.70;1.30;;;;;;;26.98;40.63;101083.13;5032927;28;20052;-66
2022/06/19 00:27:46;;;;;;;5.07;1.60;;;;;;;26.97;40.65;101094.75;5032675;28;20383;-67
2022/06/19 00:30:13;;;;;;;3.75;1.30;;;;;;;26.95;40.44;101102.00;5032832;28;20071;-66
2022/06/19 00:32:38;;;;;;;3.50;1.42;;;;;;;26.95;40.60;101098.47;5032530;28;20483;-66
2022/06/19 00:35:05;;;;;;;4.88;1.35;;;;;;;26.93;40.57;101098.53;5032590;28;20081;-66
2022/06/19 00:37:31;;;;;;;2.95;1.30;;;;;;;26.96;40.66;101098.38;5032717;28;20041;-66
2022/06/19 00:39:57;;;;;;;3.67;1.25;;;;;;;26.96;40.61;101101.03;5048010;28;20048;-66
2022/06/19 00:42:24;;;;;;;4.15;1.23;;;;;;;26.95;40.61;101085.97;5032766;28;20034;-65
2022/06/19 00:44:51;;;;;;;3.83;1.45;;;;;;;26.94;40.29;101089.56;5012972;28;20037;-66
2022/06/19 00:47:29;;;;;;;3.67;1.30;;;;;;;26.94;40.47;101078.88;5013248;28;20473;-66
2022/06/19 00:49:58;;;;;;;4.50;1.30;;;;;;;26.94;40.54;101078.00;5030564;28;20100;-66
2022/06/19 00:52:32;;;;;;;3.33;1.27;;;;;;;26.93;40.54;101081.63;5032808;28;20060;-66
2022/06/19 00:55:08;;;;;;;3.50;1.30;;;;;;;26.93;40.75;101073.59;5032472;28;20094;-66
2022/06/19 00:57:39;;;;;;;3.60;1.20;;;;;;;26.92;40.74;101080.75;5032499;28;20487;-66
2022/06/19 01:00:09;;;;;;;3.78;1.35;;;;;;;26.90;40.63;101087.97;5032491;28;20030;-66
2022/06/19 01:02:38;;;;;;;3.28;1.27;;;;;;;26.88;40.70;101076.50;5048042;28;20026;-66
2022/06/19 01:05:04;;;;;;;4.18;1.30;;;;;;;26.88;40.72;101073.84;5032627;28;20466;-66
2022/06/19 01:07:30;;;;;;;3.20;1.23;;;;;;;26.88;40.70;101084.53;5032507;28;20044;-66
2022/06/19 01:09:55;;;;;;;3.65;1.23;;;;;;;26.87;40.84;101085.44;5032446;28;20396;-66
2022/06/19 01:12:22;;;;;;;2.83;1.10;;;;;;;26.87;40.90;101089.94;5032465;28;20029;-66
2022/06/19 01:14:50;;;;;;;3.00;1.15;;;;;;;26.85;40.92;101100.69;5032237;28;20128;-66
2022/06/19 01:17:16;;;;;;;4.75;1.40;;;;;;;26.85;40.77;101118.56;5032585;28;20049;-66
2022/06/19 01:19:43;;;;;;;2.85;1.05;;;;;;;26.86;40.63;101131.84;5035748;28;20056;-66
2022/06/19 01:22:44;;;;;;;3.35;1.25;;;;;;;26.85;40.86;101158.69;5036087;28;20091;-66
2022/06/19 01:25:13;;;;;;;4.07;1.40;;;;;;;26.85;40.70;101180.09;5030548;28;20046;-66
2022/06/19 01:30:29;;;;;;;2.95;1.00;;;;;;;26.85;40.64;101222.88;5036138;28;20037;-66
2022/06/19 01:32:57;;;;;;;4.00;1.38;;;;;;;26.83;40.68;101230.16;5036229;28;20033;-66
2022/06/19 01:35:24;;;;;;;3.53;1.20;;;;;;;26.83;40.87;101214.09;5035493;28;20041;-66
2022/06/19 01:37:50;;;;;;;4.28;1.38;;;;;;;26.82;40.59;101190.94;5035549;28;20033;-66
2022/06/19 01:40:21;;;;;;;2.80;1.10;;;;;;;26.82;40.42;101156.19;5035707;28;20112;-66
2022/06/19 01:42:47;;;;;;;4.70;1.48;;;;;;;26.81;40.53;101149.09;5035754;28;20029;-66
2022/06/19 01:45:14;;;;;;;3.10;1.10;;;;;;;26.81;40.29;101146.41;5035642;28;20091;-66
2022/06/19 01:47:41;;;;;;;3.47;1.20;;;;;;;26.80;40.25;101131.31;5035748;28;20029;-66
2022/06/19 01:50:10;;;;;;;4.43;1.38;;;;;;;26.80;40.18;101108.09;5035725;28;20033;-66
2022/06/19 01:52:36;;;;;;;4.70;1.23;;;;;;;26.80;40.16;101085.81;5035333;28;20017;-66
2022/06/19 01:55:11;;;;;;;3.45;1.20;;;;;;;26.79;40.20;101098.34;5035334;28;20523;-66
2022/06/19 01:57:40;;;;;;;3.22;1.13;;;;;;;26.81;40.18;101084.88;5035511;28;20363;-66
2022/06/19 02:00:10;;;;;;;3.58;1.30;;;;;;;26.80;40.14;101076.00;5035468;28;20029;-66
2022/06/19 02:02:37;;;;;;;3.35;1.17;;;;;;;26.80;40.18;101083.16;5035190;28;20037;-66
2022/06/19 02:05:03;;;;;;;5.35;1.20;;;;;;;26.79;39.93;101098.34;5035321;28;20428;-65
2022/06/19 02:07:30;;;;;;;3.78;1.23;;;;;;;26.78;39.89;101080.53;5035326;28;20117;-67
2022/06/19 02:09:56;;;;;;;3.17;1.10;;;;;;;26.78;39.98;101067.16;5035262;28;20036;-66
2022/06/19 02:12:26;;;;;;;4.50;1.30;;;;;;;26.79;40.05;101070.72;5035258;28;20025;-66
2022/06/19 02:14:51;;;;;;;3.05;1.02;;;;;;;26.77;40.04;101060.13;5035054;28;20033;-66
2022/06/19 02:17:22;;;;;;;3.55;1.27;;;;;;;26.76;39.97;101036.97;5035122;28;20442;-66
2022/06/19 02:19:48;;;;;;;4.35;1.30;;;;;;;26.76;39.94;101028.94;5035049;28;20040;-66
2022/06/19 02:22:15;;;;;;;2.92;1.00;;;;;;;26.77;39.82;101032.50;5034996;28;20372;-66
2022/06/19 02:24:42;;;;;;;3.75;1.00;;;;;;;26.75;39.87;101045.94;5033673;28;20038;-66
2022/06/19 02:27:08;;;;;;;4.28;1.33;;;;;;;26.75;40.01;101053.97;5034768;28;20032;-66
2022/06/19 02:29:36;;;;;;;4.25;1.02;;;;;;;26.76;39.90;101063.72;5033871;28;20033;-66
2022/06/19 02:32:03;;;;;;;3.83;1.10;;;;;;;26.76;39.87;101065.53;5034894;28;20037;-66
2022/06/19 02:34:40;;;;;;;2.92;1.17;;;;;;;26.73;40.00;101084.41;5034638;28;20034;-66
2022/06/19 02:37:10;;;;;;;3.80;1.25;;;;;;;26.72;39.79;101104.91;5015095;28;20033;-66
2022/06/19 02:39:48;;;;;;;3.30;1.30;;;;;;;26.71;39.83;101115.72;5015226;28;20101;-66
2022/06/19 02:42:19;;;;;;;2.95;1.08;;;;;;;26.68;39.94;101103.34;5014916;28;20029;-66
2022/06/19 02:44:47;;;;;;;3.63;1.15;;;;;;;26.70;40.02;101079.22;5014755;28;20025;-66
2022/06/19 02:47:13;;;;;;;4.03;1.10;;;;;;;26.70;40.00;101090.78;5025681;28;20029;-66
2022/06/19 02:49:39;;;;;;;2.65;1.10;;;;;;;26.69;39.97;101093.53;5034269;28;20159;-66
2022/06/19 02:52:06;;;;;;;3.90;1.20;;;;;;;26.69;39.86;101099.75;5034124;28;20044;-66
2022/06/19 02:54:32;;;;;;;3.10;1.10;;;;;;;26.69;39.73;101117.59;5034509;28;20113;-66
2022/06/19 02:56:57;;;;;;;4.18;1.20;;;;;;;26.67;39.78;101139.06;5034035;28;20036;-66
2022/06/19 02:59:24;;;;;;;3.88;1.30;;;;;;;26.67;39.90;101137.25;5034538;28;20037;-66
2022/06/19 03:01:49;;;;;;;2.75;0.93;;;;;;;26.64;40.00;101118.69;5034124;28;20026;-66
2022/06/19 03:04:23;;;;;;;2.40;1.08;;;;;;;26.64;39.86;101115.16;5034222;28;20372;-66
2022/06/19 03:06:49;;;;;;;3.70;1.20;;;;;;;26.64;39.73;101118.69;5034278;28;20017;-66
2022/06/19 03:09:14;;;;;;;3.42;1.20;;;;;;;26.66;39.64;101121.28;5034281;28;20466;-66
2022/06/19 03:11:40;;;;;;;3.58;1.05;;;;;;;26.65;39.53;101115.06;5032795;28;20029;-66
2022/06/19 03:14:05;;;;;;;5.05;1.23;;;;;;;26.65;39.58;101106.19;5034105;28;20039;-66
2022/06/19 03:16:31;;;;;;;3.45;1.13;;;;;;;26.65;39.25;101104.34;5033789;28;20029;-66
2022/06/19 03:18:58;;;;;;;3.78;1.20;;;;;;;26.65;39.44;101098.19;5032423;28;20126;-66
2022/06/19 03:21:23;;;;;;;3.60;1.30;;;;;;;26.65;39.57;101115.06;5034061;28;20383;-66
2022/06/19 03:23:49;;;;;;;4.18;1.27;;;;;;;26.65;39.48;101130.28;5033533;28;20053;-66
2022/06/19 03:26:14;;;;;;;3.97;1.20;;;;;;;26.65;39.35;101146.31;5033929;28;20037;-66
2022/06/19 03:28:40;;;;;;;3.60;1.10;;;;;;;26.66;39.44;101190.81;5033716;28;20029;-66
2022/06/19 03:31:05;;;;;;;4.80;1.30;;;;;;;26.64;39.55;101193.59;5033840;28;20066;-66
2022/06/19 03:33:30;;;;;;;4.22;1.20;;;;;;;26.64;39.46;101166.84;5033483;28;20471;-67
2022/06/19 03:35:56;;;;;;;3.60;1.30;;;;;;;26.61;39.34;101153.59;5033571;28;20056;-66
2022/06/19 03:38:21;;;;;;;3.90;1.20;;;;;;;26.62;39.40;101136.63;5015972;28;20163;-66
2022/06/19 03:44:08;;;;;;;4.03;1.20;;;;;;;26.56;39.64;101013.91;5030904;28;20039;-66
2022/06/19 03:46:33;;;;;;;5.90;1.27;;;;;;;26.59;39.58;101023.59;5033598;28;20025;-66
2022/06/19 03:48:59;;;;;;;3.55;1.10;;;;;;;26.58;39.67;101049.47;5033797;28;20056;-66
2022/06/19 03:51:24;;;;;;;3.15;1.15;;;;;;;26.57;39.58;101100.34;5033257;28;20371;-66
2022/06/19 03:53:51;;;;;;;2.88;1.00;;;;;;;26.58;39.63;101104.75;5033594;28;20030;-66
2022/06/19 03:56:20;;;;;;;3.40;1.10;;;;;;;26.54;39.55;101029.16;5033270;28;20029;-66
2022/06/19 03:58:46;;;;;;;4.35;1.30;;;;;;;26.55;39.63;101008.63;5023254;28;20033;-66
2022/06/19 04:01:16;;;;;;;3.63;1.15;;;;;;;26.54;39.55;101001.56;5033250;28;20028;-66
2022/06/19 04:03:41;;;;;;;3.90;1.02;;;;;;;26.55;39.54;101004.16;5033138;28;20026;-66
2022/06/19 04:06:09;;;;;;;4.47;1.17;;;;;;;26.56;39.47;100955.09;5033250;28;20021;-66
2022/06/19 04:08:34;;;;;;;4.28;1.10;;;;;;;26.56;39.79;100924.81;5048247;28;20033;-66
2022/06/19 04:10:59;;;;;;;4.55;1.50;;;;;;;26.57;39.84;100916.72;5033288;28;20036;-66
2022/06/19 04:13:25;;;;;;;3.50;1.20;;;;;;;26.56;39.89;100888.22;5033093;28;20045;-66
2022/06/19 04:15:50;;;;;;;4.28;1.10;;;;;;;26.55;39.61;100883.81;5033151;28;20399;-66
2022/06/19 04:18:15;;;;;;;3.30;1.17;;;;;;;26.55;39.64;100862.44;5033025;28;20450;-67
2022/06/19 04:20:41;;;;;;;3.25;1.00;;;;;;;26.53;39.87;100831.41;5033016;28;20476;-66
2022/06/19 04:23:09;;;;;;;3.00;1.02;;;;;;;26.52;39.86;100816.28;5033062;28;20025;-66
2022/06/19 04:25:34;;;;;;;2.78;1.20;;;;;;;26.51;39.88;100787.81;5033211;28;20468;-66
2022/06/19 04:28:00;;;;;;;3.50;1.15;;;;;;;26.51;40.14;100799.38;5033008;28;20124;-67
2022/06/19 04:30:26;;;;;;;3.10;1.02;;;;;;;26.51;39.92;100769.13;5031832;28;20021;-66
2022/06/19 04:32:51;;;;;;;5.28;1.20;;;;;;;26.49;39.89;100731.75;5015290;28;20036;-66
2022/06/19 04:35:16;;;;;;;4.30;1.27;;;;;;;26.48;39.77;100710.44;5032610;28;20485;-66
2022/06/19 04:37:43;;;;;;;4.68;1.20;;;;;;;26.49;40.01;100728.22;5031440;28;20025;-66
2022/06/19 04:40:10;;;;;;;4.05;1.05;;;;;;;26.47;40.02;100792.47;5032945;28;20026;-66
2022/06/19 04:42:35;;;;;;;3.25;1.10;;;;;;;26.48;40.04;100844.13;5015245;28;20481;-66
2022/06/19 04:45:00;;;;;;;3.25;1.20;;;;;;;26.45;40.05;100847.84;5032648;28;20109;-66
2022/06/19 04:47:26;;;;;;;3.28;1.05;;;;;;;26.46;40.09;100835.34;5032605;28;20045;-66
2022/06/19 04:49:51;;;;;;;3.47;1.13;;;;;;;26.45;40.10;100847.84;5032533;28;20040;-66
2022/06/19 04:52:16;;;;;;;3.22;1.00;;;;;;;26.45;39.82;100877.25;5032557;28;20037;-66
2022/06/19 04:54:42;;;;;;;5.00;1.08;;;;;;;26.45;40.11;100913.81;5035313;28;20135;-66
2022/06/19 04:57:07;;;;;;;4.55;1.10;;;;;;;26.45;40.14;100940.53;5036517;28;20025;-66
2022/06/19 04:59:33;;;;;;;4.15;1.42;;;;;;;26.45;39.99;100946.75;5036285;28;20457;-66
2022/06/19 05:01:58;;;;;;;4.90;1.17;;;;;;;26.44;39.95;100937.00;5035104;28;20025;-66
2022/06/19 05:04:23;;;;;;;3.45;1.13;;;;;;;26.44;39.65;100918.28;5036214;28;20090;-66
2022/06/19 05:06:49;;;;;;;3.20;1.02;;;;;;;26.46;39.75;100907.53;5035216;28;20057;-67
2022/06/19 05:09:14;;;;;;;4.68;1.30;;;;;;;26.46;39.77;100902.19;5036280;28;20033;-66
2022/06/19 05:11:40;;;;;;;3.63;1.20;;;;;;;26.46;39.86;100903.03;5034774;28;20048;-66
2022/06/19 05:14:05;;;;;;;3.75;1.13;;;;;;;26.47;39.77;100920.78;5036053;28;20030;-66
2022/06/19 05:16:30;;;;;;;3.92;1.05;;;;;;;26.45;39.69;100877.25;5036109;28;20044;-66
2022/06/19 05:18:57;;;;;;;4.07;1.10;;;;;;;26.45;39.83;100845.16;5036077;28;20029;-66
2022/06/19 05:21:24;;;;;;;3.35;1.10;;;;;;;26.43;39.57;100828.34;5051183;28;20114;-66
2022/06/19 05:23:51;;;;;;;3.63;1.10;;;;;;;26.44;39.61;100863.94;5035921;28;20471;-66
2022/06/19 05:26:18;;;;;;;3.75;1.20;;;;;;;26.44;39.76;100888.88;5034654;28;20033;-67
2022/06/19 05:28:45;;;;;;;3.75;1.20;;;;;;;26.44;39.66;100902.25;5036138;28;20108;-66
2022/06/19 05:31:11;;;;;;;3.10;1.10;;;;;;;26.43;39.62;100921.03;5035809;28;20029;-66
2022/06/19 05:33:36;;;;;;;2.80;0.98;;;;;;;26.43;39.74;100905.84;5035793;28;20056;-66
2022/06/19 05:36:03;;;;;;;3.33;1.00;;;;;;;26.43;39.73;100887.16;5035480;28;20128;-66
2022/06/19 05:38:28;;;;;;;3.67;1.00;;;;;;;26.41;39.68;100902.38;5036216;28;20026;-66
2022/06/19 05:40:56;;;;;;;3.50;1.20;;;;;;;26.38;39.64;100913.25;5034381;28;20349;-66
2022/06/19 05:43:22;;;;;;;3.25;1.10;;;;;;;26.39;39.48;100908.78;5035445;28;20065;-66
2022/06/19 05:45:55;;;;;;;4.28;1.15;;;;;;;26.38;39.67;100902.56;5035463;28;20115;-66
2022/06/19 05:48:21;;;;;;;2.75;0.93;;;;;;;26.38;39.68;100896.34;5035763;28;20028;-66
2022/06/19 05:51:07;;;;;;;3.30;1.20;;;;;;;26.39;39.54;100908.78;5035446;28;20487;-66
2022/06/19 05:53:37;;;;;;;3.65;1.10;;;;;;;26.39;39.52;100911.44;5035335;28;20375;-66
2022/06/19 05:56:03;;;;;;;3.15;0.90;;;;;;;26.38;39.54;100912.38;5035521;28;20031;-66
2022/06/19 05:58:29;;;;;;;3.20;1.00;;;;;;;26.39;39.29;100925.69;5035251;28;20067;-66
2022/06/19 06:00:54;;;;;;;3.38;1.10;;;;;;;26.38;39.42;100917.72;5035427;28;20033;-66
2022/06/19 06:03:21;;;;;;;3.90;1.20;;;;;;;26.37;39.39;100916.00;5035245;28;20407;-66
2022/06/19 06:05:47;;;;;;;3.88;1.10;;;;;;;26.38;39.24;100923.09;5033780;28;20029;-66
2022/06/19 06:08:14;;;;;;;3.70;1.08;;;;;;;26.37;39.29;100930.22;5034998;28;20025;-66
2022/06/19 06:10:40;;;;;;;4.00;1.23;;;;;;;26.37;39.32;100940.06;5035063;28;20075;-66
2022/06/19 06:13:06;;;;;;;3.30;1.10;;;;;;;26.35;39.00;100941.97;5034795;28;20420;-66
2022/06/19 06:15:31;;;;;;;3.10;1.05;;;;;;;26.35;39.14;100948.16;5035101;28;20037;-66
2022/06/19 06:18:01;;;;;;;5.18;1.30;;;;;;;26.35;39.14;100977.56;5034951;28;20041;-66
2022/06/19 06:20:27;;;;;;;3.30;1.00;;;;;;;26.35;39.07;100996.25;5033794;28;20049;-66
2022/06/19 06:22:52;;;;;;;3.40;0.93;;;;;;;26.33;39.03;100992.81;5034636;28;20021;-66
2022/06/19 06:25:18;;;;;;;3.72;1.13;;;;;;;26.34;38.96;100985.66;5034372;28;20043;-66
2022/06/19 06:27:44;;;;;;;2.70;0.90;;;;;;;26.33;39.01;100983.94;5034949;28;20022;-66
2022/06/19 06:30:11;;;;;;;2.20;1.15;;;;;;;26.33;38.89;100982.13;5034479;28;20025;-66
2022/06/19 06:32:36;;;;;;;2.80;0.90;;;;;;;26.33;39.01;100983.94;5035005;28;20033;-66
2022/06/19 06:35:01;;;;;;;2.63;1.00;;;;;;;26.32;38.83;100983.06;5033167;28;20148;-66
2022/06/19 06:37:27;;;;;;;2.92;0.98;;;;;;;26.33;38.94;100987.47;5034266;28;20036;-66
2022/06/19 06:39:52;;;;;;;4.03;1.10;;;;;;;26.34;38.91;100985.66;5034829;28;20060;-66
2022/06/19 06:42:17;;;;;;;3.67;1.10;;;;;;;26.34;38.58;101001.72;5033295;28;20083;-66
2022/06/19 06:44:43;;;;;;;3.17;1.10;;;;;;;26.33;38.87;100995.50;5034245;28;20095;-66
2022/06/19 06:47:29;;;;;;;2.53;1.00;;;;;;;26.31;38.95;100989.34;5034398;28;20025;-66
2022/06/19 06:49:55;;;;;;;2.97;0.90;;;;;;;26.32;39.16;101007.13;5034117;28;20387;-67
2022/06/19 06:52:20;;;;;;;3.58;1.02;;;;;;;26.34;39.07;101009.72;5034126;28;20030;-66
2022/06/19 06:54:46;;;;;;;2.65;1.00;;;;;;;26.33;38.93;100998.16;5049536;28;20051;-66
2022/06/19 06:57:11;;;;;;;3.17;0.80;;;;;;;26.32;38.96;100992.88;5034145;28;20045;-66
2022/06/19 06:59:37;;;;;;;2.53;1.00;;;;;;;26.31;38.96;101002.72;5032841;28;20515;-66
2022/06/19 07:02:05;;;;;;;3.60;1.10;;;;;;;26.31;39.04;101002.72;5033869;28;20029;-66
2022/06/19 07:04:30;;;;;;;3.45;1.17;;;;;;;26.31;39.19;101008.06;5028550;28;20025;-66
2022/06/19 07:06:55;;;;;;;2.95;0.95;;;;;;;26.32;39.06;101008.94;5034103;28;20120;-66
2022/06/19 07:09:21;;;;;;;2.85;0.90;;;;;;;26.30;39.22;101003.66;5034112;28;20029;-66
2022/06/19 07:11:47;;;;;;;2.72;1.00;;;;;;;26.31;38.92;101009.88;5032743;28;20467;-66
2022/06/19 07:14:13;;;;;;;2.60;1.00;;;;;;;26.29;39.05;101007.25;5049246;28;20026;-66
2022/06/19 07:16:40;;;;;;;4.13;1.00;;;;;;;26.27;39.00;101001.16;5033202;28;20045;-66
2022/06/19 07:19:06;;;;;;;3.38;0.90;;;;;;;26.26;39.21;100999.41;5033873;28;20417;-66
2022/06/19 07:21:31;;;;;;;2.85;1.08;;;;;;;26.26;39.29;101015.44;5033685;28;20025;-66
2022/06/19 07:23:57;;;;;;;3.55;1.00;;;;;;;26.26;39.18;101042.16;5032839;28;20365;-66
2022/06/19 07:26:25;;;;;;;2.75;1.00;;;;;;;26.27;39.17;101053.72;5033949;28;20068;-66
2022/06/19 07:28:50;;;;;;;3.13;1.05;;;;;;;26.24;39.31;101047.59;5033682;28;20022;-66
2022/06/19 07:31:16;;;;;;;2.08;0.82;;;;;;;26.24;39.33;101062.75;5033387;28;20124;-66
2022/06/19 07:33:41;;;;;;;1.95;0.88;;;;;;;26.25;39.14;101083.19;5033117;28;20025;-66
2022/06/19 07:36:13;;;;;;;3.03;0.98;;;;;;;26.23;39.31;101095.72;5033227;28;20064;-66
2022/06/19 07:38:39;;;;;;;2.60;0.90;;;;;;;26.27;39.35;101113.41;5033603;28;20040;-66
2022/06/19 07:41:04;;;;;;;3.35;0.95;;;;;;;26.27;39.10;101124.09;5033440;28;20037;-67
2022/06/19 07:43:30;;;;;;;3.47;1.10;;;;;;;26.28;39.05;101135.66;5033599;28;20432;-66
2022/06/19 07:45:55;;;;;;;2.72;0.90;;;;;;;26.25;39.23;101137.53;5033485;28;20033;-66
2022/06/19 07:51:05;;;;;;;2.60;1.00;;;;;;;26.25;39.23;101147.34;5028111;28;20122;-66
2022/06/19 07:53:30;;;;;;;3.83;1.00;;;;;;;26.23;39.10;101142.06;5030076;28;20060;-68
2022/06/19 07:55:56;;;;;;;3.40;1.10;;;;;;;26.20;39.38;101147.53;5027630;28;20041;-69
2022/06/19 07:58:22;;;;;;;3.75;1.02;;;;;;;26.21;39.44;101151.06;5028442;28;20028;-69
2022/06/19 08:00:47;;;;;;;2.42;0.80;;;;;;;26.21;39.47;101151.06;5028727;28;20057;-68
2022/06/19 08:03:12;;;;;;;2.58;0.90;;;;;;;26.21;39.36;101154.63;5044334;28;20111;-68
2022/06/19 08:05:41;;;;;;;5.55;1.17;;;;;;;26.20;39.44;101142.19;5028976;28;20381;-69
2022/06/19 08:08:15;;;;;;;4.10;0.95;;;;;;;26.21;39.30;101132.38;5028785;28;20415;-68
2022/06/19 08:10:42;;;;;;;2.72;1.10;;;;;;;26.22;39.29;101134.09;5028836;28;20111;-69
2022/06/19 08:13:08;;;;;;;3.28;0.90;;;;;;;26.21;39.39;101137.72;5028731;28;20041;-68
2022/06/19 08:15:34;;;;;;;2.90;1.02;;;;;;;26.23;39.52;101155.44;5028481;28;20025;-69
2022/06/19 08:18:00;;;;;;;2.72;0.95;;;;;;;26.23;39.35;101155.44;5027764;28;20498;-68
2022/06/19 08:20:26;;;;;;;3.53;1.00;;;;;;;26.23;39.33;101160.78;5028982;28;20030;-69
2022/06/19 08:22:52;;;;;;;3.33;1.10;;;;;;;26.24;39.54;101157.16;5028928;28;20026;-68
2022/06/19 08:25:20;;;;;;;4.28;1.20;;;;;;;26.23;39.34;101157.19;5027272;28;20025;-69
2022/06/19 08:27:49;;;;;;;3.67;1.08;;;;;;;26.22;39.43;101145.66;5028767;28;20476;-68
2022/06/19 08:30:25;;;;;;;3.00;0.95;;;;;;;26.22;39.29;101164.38;5032465;28;20026;-69
2022/06/19 08:32:51;;;;;;;2.63;0.98;;;;;;;26.23;39.56;101165.22;5032595;28;20468;-68
2022/06/19 08:35:17;;;;;;;3.08;0.95;;;;;;;26.22;39.55;101164.38;5032561;28;20050;-69
2022/06/19 08:37:45;;;;;;;2.45;0.90;;;;;;;26.21;39.28;101164.44;5032188;28;20035;-68
2022/06/19 08:40:39;;;;;;;4.35;1.10;;;;;;;26.21;39.36;101172.47;5032286;28;20025;-69
2022/06/19 08:43:12;;;;;;;3.40;1.02;;;;;;;26.20;39.65;101171.59;5027402;28;20099;-68
2022/06/19 08:46:02;;;;;;;4.25;1.10;;;;;;;26.17;39.45;101174.38;5047527;28;20036;-69
2022/06/19 08:48:58;;;;;;;3.40;1.00;;;;;;;26.18;39.46;101176.13;5031910;28;20484;-68
2022/06/19 08:51:42;;;;;;;4.05;1.10;;;;;;;26.19;39.28;101179.66;5032507;28;20530;-69
2022/06/19 08:54:30;;;;;;;3.22;1.10;;;;;;;26.18;39.63;101177.94;5032462;28;20037;-68
2022/06/19 08:57:16;;;;;;;3.88;0.88;;;;;;;26.17;39.27;101174.38;5032331;28;20034;-69
2022/06/19 08:59:53;;;;;;;4.10;1.15;;;;;;;26.18;39.45;101169.91;5032063;28;20029;-68
2022/06/19 09:02:37;;;;;;;3.08;1.00;;;;;;;26.18;39.39;101181.47;5032088;28;20037;-68
2022/06/19 09:08:49;;;;;;;3.13;1.10;;;;;;;26.21;39.12;101191.16;5031871;28;19923;-69
2022/06/19 09:11:23;;;;;;;2.33;1.00;;;;;;;26.21;39.07;101188.50;5032108;28;20398;-69
2022/06/19 09:14:09;;;;;;;3.45;1.10;;;;;;;26.20;39.31;101176.06;5029996;28;20029;-68
2022/06/19 09:16:38;;;;;;;2.45;0.95;;;;;;;26.21;39.02;101173.31;5031510;28;20037;-69
2022/06/19 09:19:25;;;;;;;3.17;1.10;;;;;;;26.22;39.32;101166.19;5031623;28;20055;-68
2022/06/19 09:21:53;;;;;;;5.03;1.20;;;;;;;26.20;39.13;101155.56;5031691;28;20463;-68
2022/06/19 09:24:32;;;;;;;4.22;1.17;;;;;;;26.20;39.26;101146.66;5031703;28;20029;-68
2022/06/19 09:26:59;;;;;;;5.45;1.55;;;;;;;26.21;39.36;101127.03;5031530;28;20033;-68
2022/06/19 09:29:36;;;;;;;4.65;1.20;;;;;;;26.18;39.29;101119.13;5031674;28;20491;-68
2022/06/19 09:32:10;;;;;;;5.63;1.13;;;;;;;26.20;39.33;101114.59;5031132;28;20441;-69
2022/06/19 09:34:51;;;;;;;3.65;1.13;;;;;;;26.17;39.44;101112.94;5031623;28;20057;-69
2022/06/19 09:37:47;;;;;;;6.57;1.33;;;;;;;26.18;39.34;101114.66;5043406;28;20141;-69
2022/06/19 09:40:39;;;;;;;5.22;1.27;;;;;;;26.18;39.34;101098.63;5019975;28;20603;-69
2022/06/19 09:43:20;;;;;;;6.55;1.23;;;;;;;26.19;39.52;101111.06;5029863;28;20029;-69
2022/06/19 09:45:57;;;;;;;6.90;1.13;;;;;;;26.23;39.52;101107.31;5031164;28;20587;-69
2022/06/19 09:48:57;;;;;;;5.40;1.17;;;;;;;26.23;39.26;101104.66;5030912;28;20030;-69
2022/06/19 09:51:36;;;;;;;10.73;1.08;;;;;;;26.24;39.45;101106.38;5031195;28;20028;-69
2022/06/19 09:54:12;;;;;;;5.45;1.00;;;;;;;26.25;39.36;101089.41;5025832;28;20084;-68
2022/06/19 09:56:42;;;;;;;3.97;1.33;;;;;;;26.29;39.55;101090.13;5030844;28;20033;-68
2022/06/19 09:59:19;;;;;;;4.07;1.05;;;;;;;26.26;39.72;101114.34;5030768;28;20148;-67
2022/06/19 10:01:55;;;;;;;4.20;1.10;;;;;;;26.27;39.90;101110.72;5030815;28;20097;-68
2022/06/19 10:04:43;;;;;;;5.45;1.20;;;;;;;26.22;39.72;101115.41;5031213;28;20030;-67
2022/06/19 10:07:36;;;;;;;6.95;1.30;;;;;;;26.23;39.84;101111.75;5031372;28;20120;-67
2022/06/19 10:10:18;;;;;;;5.93;1.20;;;;;;;26.15;39.45;101104.13;5031428;28;20491;-67
2022/06/19 10:12:48;;;;;;;8.30;1.63;;;;;;;26.16;39.65;101105.00;5029716;28;20160;-67
2022/06/19 10:15:18;;;;;;;4.40;1.27;;;;;;;26.15;39.28;101111.28;5027176;28;20407;-69
2022/06/19 10:18:23;;;;;;;8.93;1.20;;;;;;;26.16;39.64;101102.34;5030010;28;20020;-67
2022/06/19 10:21:09;;;;;;;9.32;1.60;;;;;;;26.24;39.61;101094.81;5030534;28;20031;-67
2022/06/19 10:23:53;;;;;;;7.45;1.50;;;;;;;26.26;39.51;101092.97;5030518;28;20036;-68
2022/06/19 10:26:38;;;;;;;7.90;1.10;;;;;;;26.28;39.38;101092.88;5030087;28;20033;-68
2022/06/19 10:29:39;;;;;;;10.15;1.48;;;;;;;26.28;39.83;101099.09;5027884;28;20029;-68
2022/06/19 10:32:18;;;;;;;10.25;1.50;;;;;;;26.32;39.64;101083.78;5008910;28;20041;-69
2022/06/19 10:35:05;;;;;;;8.98;1.45;;;;;;;26.32;39.83;101087.31;5029669;28;20044;-68
2022/06/19 10:37:49;;;;;;;7.15;1.05;;;;;;;26.31;39.72;101072.22;5026090;28;20627;-67
2022/06/19 10:40:39;;;;;;;6.85;1.42;;;;;;;26.33;40.05;101061.44;5029958;28;20116;-68
2022/06/19 10:43:40;;;;;;;8.32;1.33;;;;;;;26.34;39.94;101055.16;5030235;28;20107;-68
2022/06/19 10:46:07;;;;;;;7.60;1.45;;;;;;;26.32;39.99;101049.03;5030356;28;20029;-67
2022/06/19 10:48:56;;;;;;;6.00;1.40;;;;;;;26.33;39.86;101045.41;5030340;28;20017;-67
2022/06/19 10:51:48;;;;;;;8.15;1.63;;;;;;;26.33;39.97;101064.13;5027774;28;20509;-69
2022/06/19 10:54:22;;;;;;;6.05;1.27;;;;;;;26.36;39.89;101064.81;5025821;28;20029;-76
2022/06/19 10:56:51;;;;;;;4.55;1.30;;;;;;;26.43;39.96;101062.72;5027662;28;20105;-85
2022/06/19 10:59:17;;;;;;;7.18;1.33;;;;;;;26.41;40.43;101070.81;5028783;28;20033;-79
2022/06/19 11:04:52;;;;;;;6.93;1.23;;;;;;;26.49;40.60;101106.06;5030629;28;20095;-79
2022/06/19 11:07:20;;;;;;;8.57;1.48;;;;;;;26.50;40.64;101109.59;5030613;28;20021;-84
2022/06/19 11:09:48;;;;;;;6.18;1.08;;;;;;;26.51;40.57;101120.25;5028716;28;20029;-76
2022/06/19 11:12:21;;;;;;;9.38;1.23;;;;;;;26.53;40.22;101134.38;5030631;28;20051;-79
2022/06/19 11:14:52;;;;;;;7.30;1.40;;;;;;;26.58;40.27;101137.72;5030562;28;20044;-80
2022/06/19 11:17:39;;;;;;;9.38;1.27;;;;;;;26.62;40.51;101144.66;5031362;28;20087;-80
2022/06/19 11:20:16;;;;;;;6.90;1.10;;;;;;;26.63;40.52;101153.53;5029227;28;20026;-75
2022/06/19 11:22:45;;;;;;;4.03;1.02;;;;;;;26.65;41.03;101165.03;5029365;28;20037;-69
2022/06/19 11:25:19;;;;;;;5.95;1.52;;;;;;;26.63;40.75;101181.16;5029171;28;20029;-69
2022/06/19 11:27:52;;;;;;;7.45;1.08;;;;;;;26.65;40.62;101165.88;5026449;28;20033;-67
2022/06/19 11:30:39;;;;;;;6.18;1.45;;;;;;;26.62;40.32;101154.47;5029672;28;20021;-69
2022/06/19 11:33:18;;;;;;;5.50;1.10;;;;;;;26.62;40.28;101152.66;5027483;28;20037;-69
2022/06/19 11:35:46;;;;;;;5.47;1.15;;;;;;;26.61;40.33;101171.44;5029488;28;20400;-69
2022/06/19 11:38:13;;;;;;;4.70;1.30;;;;;;;26.58;40.61;101182.31;5028944;28;20104;-69
2022/06/19 11:40:45;;;;;;;8.70;1.35;;;;;;;26.57;40.66;101188.59;5028306;28;20069;-69
2022/06/19 11:43:30;;;;;;;7.43;1.10;;;;;;;26.56;40.71;101181.50;5029527;28;20029;-68
2022/06/19 11:46:13;;;;;;;3.92;1.15;;;;;;;26.54;40.73;101175.34;5028812;28;20037;-71
2022/06/19 11:48:39;;;;;;;6.85;1.00;;;;;;;26.57;40.43;101180.56;5029938;28;20021;-71
2022/06/19 11:51:16;;;;;;;4.70;1.27;;;;;;;26.56;40.48;101169.00;5030247;28;20349;-71
2022/06/19 11:53:43;;;;;;;5.95;1.38;;;;;;;26.54;40.49;101159.31;5028993;28;20061;-70